createdAt,value
2022-12-08T00:03:49.601Z,7.07
2022-12-08T00:08:16.362Z,6.90
2022-12-08T00:12:25.084Z,7.40
2022-12-08T00:16:33.681Z,6.60
2022-12-08T00:20:42.199Z,6.90
2022-12-08T00:24:50.743Z,6.00
2022-12-08T00:28:59.307Z,6.30
2022-12-08T00:33:07.921Z,6.33
2022-12-08T00:37:16.547Z,5.97
2022-12-08T00:41:44.836Z,6.30
2022-12-08T00:46:12.775Z,6.80
2022-12-08T00:50:40.809Z,7.73
2022-12-08T00:54:49.431Z,5.50
2022-12-08T00:59:17.332Z,6.50
2022-12-08T01:03:25.978Z,7.10
2022-12-08T01:07:34.673Z,6.80
2022-12-08T01:11:44.426Z,8.23
2022-12-08T01:15:53.055Z,9.60
2022-12-08T01:20:02.339Z,8.57
2022-12-08T01:24:16.090Z,9.67
2022-12-08T01:28:24.652Z,9.30
2022-12-08T01:32:33.305Z,10.23
2022-12-08T01:36:43.773Z,9.77
2022-12-08T01:40:52.405Z,11.83
2022-12-08T01:45:27.504Z,11.07
2022-12-08T01:49:37.416Z,10.23
2022-12-08T01:53:46.347Z,11.80
2022-12-08T01:57:58.582Z,12.70
2022-12-08T02:02:07.221Z,10.50
2022-12-08T02:06:17.195Z,10.70
2022-12-08T02:10:27.982Z,11.00
2022-12-08T02:14:36.762Z,12.20
2022-12-08T02:19:31.672Z,14.63
2022-12-08T02:23:31.275Z,11.37
2022-12-08T02:28:14.550Z,13.60
2022-12-08T02:32:51.692Z,13.83
2022-12-08T02:37:30.978Z,13.70
2022-12-08T02:41:48.623Z,13.73
2022-12-08T02:46:24.109Z,14.70
2022-12-08T02:50:33.265Z,13.17
2022-12-08T02:54:44.959Z,14.87
2022-12-08T02:59:32.400Z,14.63
2022-12-08T03:03:46.922Z,16.07
2022-12-08T03:07:58.570Z,13.23
2022-12-08T03:12:13.334Z,13.50
2022-12-08T03:16:27.723Z,14.37
2022-12-08T03:20:37.861Z,16.27
2022-12-08T03:24:47.571Z,13.83
2022-12-08T03:28:56.371Z,13.93
2022-12-08T03:33:13.777Z,15.70
2022-12-08T03:37:22.883Z,15.23
2022-12-08T03:41:50.869Z,14.30
2022-12-08T03:45:59.564Z,15.40
2022-12-08T03:50:08.994Z,15.90
2022-12-08T03:54:17.677Z,12.77
2022-12-08T03:58:26.248Z,15.30
2022-12-08T04:02:35.064Z,15.07
2022-12-08T04:06:43.768Z,14.70
2022-12-08T04:10:52.292Z,14.50
2022-12-08T04:15:00.919Z,13.00
2022-12-08T04:19:09.655Z,13.50
2022-12-08T04:23:18.292Z,12.10
2022-12-08T04:27:26.866Z,11.87
2022-12-08T04:31:35.495Z,14.87
2022-12-08T04:35:44.113Z,12.30
2022-12-08T04:39:52.695Z,11.67
2022-12-08T04:44:01.322Z,11.90
2022-12-08T04:48:12.399Z,12.40
2022-12-08T04:52:21.143Z,9.90
2022-12-08T04:56:29.766Z,10.27
2022-12-08T05:00:38.398Z,11.50
2022-12-08T05:04:47.026Z,9.80
2022-12-08T05:08:56.369Z,9.90
2022-12-08T05:13:05.100Z,9.20
2022-12-08T05:17:13.732Z,11.60
2022-12-08T05:21:22.357Z,8.80
2022-12-08T05:25:31.089Z,9.17
2022-12-08T05:29:39.665Z,10.53
2022-12-08T05:33:49.962Z,9.60
2022-12-08T05:37:58.614Z,8.63
2022-12-08T05:42:07.344Z,8.20
2022-12-08T05:46:16.129Z,10.93
2022-12-08T05:50:48.578Z,10.37
2022-12-08T05:54:57.150Z,10.20
2022-12-08T05:59:18.425Z,10.93
2022-12-08T06:03:27.101Z,11.97
2022-12-08T06:07:36.188Z,8.60
2022-12-08T06:11:46.452Z,9.93
2022-12-08T06:15:55.186Z,7.93
2022-12-08T06:20:04.690Z,8.87
2022-12-08T06:24:13.670Z,11.90
2022-12-08T06:28:22.302Z,11.07
2022-12-08T06:32:31.065Z,9.63
2022-12-08T06:36:39.862Z,11.00
2022-12-08T06:40:56.546Z,10.10
2022-12-08T06:45:06.060Z,10.40
2022-12-08T06:49:14.762Z,9.77
2022-12-08T06:53:23.388Z,9.97
2022-12-08T06:57:33.555Z,9.70
2022-12-08T07:01:43.002Z,10.17
2022-12-08T07:05:53.180Z,11.50
2022-12-08T07:10:02.053Z,9.40
2022-12-08T07:14:30.289Z,9.23
2022-12-08T07:18:39.578Z,8.03
2022-12-08T07:22:52.163Z,8.27
2022-12-08T07:27:00.725Z,7.57
2022-12-08T07:31:11.996Z,7.47
2022-12-08T07:35:21.571Z,7.20
2022-12-08T07:39:30.764Z,5.47
2022-12-08T07:43:39.908Z,5.43
2022-12-08T07:48:08.093Z,6.30
2022-12-08T07:52:16.927Z,6.67
2022-12-08T07:56:44.810Z,7.37
2022-12-08T08:00:54.194Z,6.53
2022-12-08T08:05:03.111Z,7.23
2022-12-08T08:09:11.821Z,6.27
2022-12-08T08:13:20.430Z,6.93
2022-12-08T08:17:30.573Z,6.40
2022-12-08T08:21:46.663Z,5.60
2022-12-08T08:25:49.867Z,5.77
2022-12-08T08:29:58.501Z,6.03
2022-12-08T08:34:07.302Z,6.37
2022-12-08T08:38:16.213Z,7.00
2022-12-08T08:42:24.842Z,6.83
2022-12-08T08:46:33.937Z,8.53
2022-12-08T08:50:42.611Z,7.33
2022-12-08T08:54:51.240Z,8.30
2022-12-08T08:58:59.775Z,7.73
2022-12-08T09:03:08.702Z,8.90
2022-12-08T09:07:18.661Z,8.57
2022-12-08T09:11:27.240Z,9.90
2022-12-08T09:15:36.007Z,8.83
2022-12-08T09:19:44.653Z,10.10
2022-12-08T09:23:56.691Z,9.53
2022-12-08T09:28:06.184Z,10.10
2022-12-08T09:32:14.761Z,9.10
2022-12-08T09:36:23.464Z,12.80
2022-12-08T09:40:35.064Z,11.53
2022-12-08T09:45:09.096Z,11.90
2022-12-08T09:49:20.909Z,14.30
2022-12-08T09:53:35.707Z,9.60
2022-12-08T09:57:42.961Z,9.87
2022-12-08T10:01:52.702Z,11.10
2022-12-08T10:06:22.130Z,9.60
2022-12-08T10:10:42.562Z,9.90
2022-12-08T10:14:54.341Z,9.57
2022-12-08T10:19:12.388Z,10.50
2022-12-08T10:23:36.380Z,13.40
2022-12-08T10:27:47.564Z,10.17
2022-12-08T10:31:59.549Z,10.47
2022-12-08T10:36:10.604Z,10.37
2022-12-08T10:40:19.754Z,10.77
2022-12-08T10:44:28.838Z,11.20
2022-12-08T10:48:37.366Z,9.80
2022-12-08T10:52:46.865Z,9.87
2022-12-08T10:56:57.370Z,8.43
2022-12-08T11:01:25.811Z,11.13
2022-12-08T11:05:36.462Z,11.67
2022-12-08T11:09:51.435Z,10.10
2022-12-08T11:14:01.521Z,10.47
2022-12-08T11:18:29.164Z,8.83
2022-12-08T11:22:47.425Z,7.07
2022-12-08T11:27:02.496Z,5.20
2022-12-08T11:31:14.825Z,4.63
2022-12-08T11:35:33.337Z,4.37
2022-12-08T11:39:45.509Z,4.40
2022-12-08T11:44:09.582Z,5.33
2022-12-08T11:48:20.940Z,4.90
2022-12-08T11:52:35.672Z,4.50
2022-12-08T11:56:47.294Z,9.13
2022-12-08T12:00:56.730Z,6.50
2022-12-08T12:05:17.386Z,6.03
2022-12-08T12:09:30.303Z,6.03
2022-12-08T12:13:57.024Z,6.23
2022-12-08T12:18:21.085Z,4.80
2022-12-08T12:22:32.745Z,4.33
2022-12-08T12:26:56.640Z,4.10
2022-12-08T12:31:08.424Z,5.43
2022-12-08T12:35:29.302Z,4.50
2022-12-08T12:39:57.592Z,4.43
2022-12-08T12:44:36.006Z,4.13
2022-12-08T12:48:45.455Z,4.73
2022-12-08T12:53:20.108Z,6.37
2022-12-08T12:57:41.319Z,7.10
2022-12-08T13:02:16.689Z,6.70
2022-12-08T13:06:28.261Z,6.20
2022-12-08T13:10:42.439Z,6.93
2022-12-08T13:14:53.326Z,6.53
2022-12-08T13:19:07.909Z,6.70
2022-12-08T13:23:40.694Z,6.73
2022-12-08T13:27:56.088Z,8.03
2022-12-08T13:32:07.713Z,8.00
2022-12-08T13:36:26.699Z,8.80
2022-12-08T13:40:38.022Z,8.17
2022-12-08T13:54:35.434Z,7.13
2022-12-08T13:57:45.149Z,9.00
2022-12-08T14:01:53.855Z,8.00
2022-12-08T14:06:13.249Z,7.90
2022-12-08T14:10:23.581Z,6.73
2022-12-08T14:15:02.604Z,6.30
2022-12-08T14:18:55.539Z,6.40
2022-12-08T14:23:24.500Z,6.43
2022-12-08T14:27:37.868Z,6.23
2022-12-08T14:31:46.449Z,5.70
2022-12-08T14:35:56.777Z,6.97
2022-12-08T14:40:08.223Z,5.03
2022-12-08T14:44:25.082Z,5.53
2022-12-08T14:48:36.734Z,5.80
2022-12-08T14:53:04.832Z,6.43
2022-12-08T14:57:16.496Z,7.00
2022-12-08T15:01:26.660Z,10.40
2022-12-08T15:05:36.547Z,8.97
2022-12-08T15:09:48.890Z,8.23
2022-12-08T15:13:57.700Z,7.80
2022-12-08T15:18:31.824Z,7.57
2022-12-08T15:23:00.018Z,9.43
2022-12-08T15:27:10.742Z,8.83
2022-12-08T15:31:20.201Z,8.23
2022-12-08T15:35:29.230Z,8.50
2022-12-08T15:39:40.036Z,10.17
2022-12-08T15:43:48.607Z,8.37
2022-12-08T15:47:57.672Z,8.70
2022-12-08T15:52:27.242Z,11.63
2022-12-08T15:56:45.329Z,10.37
2022-12-08T16:00:52.968Z,10.50
2022-12-08T16:05:40.417Z,11.50
2022-12-08T16:09:32.245Z,12.40
2022-12-08T16:13:58.457Z,12.77
2022-12-08T16:18:04.375Z,11.00
2022-12-08T16:31:02.468Z,13.00
2022-12-08T16:35:13.089Z,11.20
2022-12-08T16:39:21.748Z,11.63
2022-12-08T16:43:32.250Z,11.80
2022-12-08T16:47:43.816Z,11.13
2022-12-08T16:51:52.528Z,12.80
2022-12-08T16:56:01.094Z,11.03
2022-12-08T17:00:13.500Z,13.97
2022-12-08T17:04:31.293Z,11.27
2022-12-08T17:08:51.598Z,11.63
2022-12-08T17:13:21.540Z,11.97
2022-12-08T17:17:30.168Z,11.93
2022-12-08T17:21:38.978Z,13.30
2022-12-08T17:26:01.177Z,12.07
2022-12-08T17:30:11.779Z,12.40
2022-12-08T17:34:20.369Z,15.60
2022-12-08T17:38:28.934Z,16.10
2022-12-08T17:42:38.677Z,15.37
2022-12-08T17:46:52.598Z,14.73
2022-12-08T17:51:18.518Z,13.10
2022-12-08T17:55:27.167Z,16.40
2022-12-08T17:59:35.982Z,14.67
2022-12-08T18:03:44.510Z,14.23
2022-12-08T18:07:53.297Z,13.73
2022-12-08T18:12:01.950Z,14.90
2022-12-08T18:16:11.011Z,15.17
2022-12-08T18:20:20.050Z,13.27
2022-12-08T18:24:28.613Z,13.90
2022-12-08T18:28:39.065Z,13.53
2022-12-08T18:33:07.442Z,11.30
2022-12-08T18:37:16.043Z,13.37
2022-12-08T18:41:26.847Z,12.83
2022-12-08T18:45:37.381Z,11.70
2022-12-08T18:49:46.366Z,13.27
2022-12-08T18:53:54.983Z,12.47
2022-12-08T18:58:03.512Z,11.33
2022-12-08T19:02:13.136Z,13.70
2022-12-08T19:06:22.823Z,11.70
2022-12-08T19:10:32.366Z,13.47
2022-12-08T19:14:42.285Z,11.93
2022-12-08T19:18:50.864Z,12.50
2022-12-08T19:22:59.432Z,12.90
2022-12-08T19:27:07.980Z,12.63
2022-12-08T19:31:18.429Z,13.30
2022-12-08T19:35:26.991Z,13.33
2022-12-08T19:39:55.160Z,12.03
2022-12-08T19:44:21.849Z,13.20
2022-12-08T19:48:49.751Z,12.37
2022-12-08T19:52:59.386Z,11.40
2022-12-08T19:57:08.110Z,13.27
2022-12-08T20:01:17.973Z,13.17
2022-12-08T20:05:27.105Z,11.90
2022-12-08T20:09:35.738Z,11.27
2022-12-08T20:13:45.935Z,12.20
2022-12-08T20:17:54.623Z,12.03
2022-12-08T20:22:03.493Z,9.60
2022-12-08T20:26:14.153Z,9.73
2022-12-08T20:30:43.832Z,11.97
2022-12-08T20:34:52.520Z,9.93
2022-12-08T20:39:01.324Z,11.50
2022-12-08T20:43:09.874Z,11.10
2022-12-08T20:47:18.566Z,13.33
2022-12-08T20:51:31.867Z,9.53
2022-12-08T20:55:39.527Z,10.13
2022-12-08T20:59:48.112Z,11.60
2022-12-08T21:04:16.758Z,11.40
2022-12-08T21:08:26.066Z,10.87
2022-12-08T21:12:34.988Z,11.60
2022-12-08T21:16:43.747Z,10.33
2022-12-08T21:20:53.160Z,10.90
2022-12-08T21:25:01.947Z,11.37
2022-12-08T21:29:12.847Z,11.80
2022-12-08T21:33:21.468Z,10.30
2022-12-08T21:37:30.482Z,11.60
2022-12-08T21:42:16.616Z,12.07
2022-12-08T21:46:25.300Z,10.20
2022-12-08T21:50:33.983Z,11.77
2022-12-08T21:54:42.949Z,10.95
2022-12-08T21:58:51.664Z,12.27
2022-12-08T22:03:00.489Z,10.20
2022-12-08T22:07:09.539Z,10.83
2022-12-08T22:11:19.319Z,12.70
2022-12-08T22:15:30.024Z,10.67
2022-12-08T22:19:38.822Z,10.63
2022-12-08T22:23:47.603Z,9.57
2022-12-08T22:27:56.633Z,9.50
2022-12-08T22:32:05.822Z,10.60
2022-12-08T22:36:20.403Z,12.90
2022-12-08T22:40:29.290Z,11.87
2022-12-08T22:44:38.416Z,10.60
2022-12-08T22:48:47.960Z,11.00
2022-12-08T22:52:56.973Z,14.63
2022-12-08T22:57:05.817Z,12.80
2022-12-08T23:01:29.666Z,10.37
2022-12-08T23:05:40.590Z,12.33
2022-12-08T23:09:49.237Z,9.97
2022-12-08T23:14:02.590Z,11.53
2022-12-08T23:18:16.345Z,11.40
2022-12-08T23:22:24.985Z,11.37
2022-12-08T23:26:35.351Z,12.80
2022-12-08T23:30:44.254Z,10.87
2022-12-08T23:34:52.861Z,13.33
2022-12-08T23:39:01.515Z,10.60
2022-12-08T23:43:10.079Z,12.80
2022-12-08T23:47:19.204Z,12.07
2022-12-08T23:51:28.739Z,11.90
2022-12-08T23:55:37.588Z,12.67
2022-12-08T23:59:47.704Z,11.77
